createdAt,value
2022-12-04T00:00:34.687Z,19.66
2022-12-04T00:03:01.822Z,19.68
2022-12-04T00:05:28.841Z,19.66
2022-12-04T00:07:55.939Z,19.67
2022-12-04T00:10:23.010Z,19.63
2022-12-04T00:12:50.012Z,19.64
2022-12-04T00:15:25.349Z,19.61
2022-12-04T00:17:53.315Z,19.58
2022-12-04T00:20:20.417Z,19.55
2022-12-04T00:22:47.501Z,19.54
2022-12-04T00:25:14.486Z,19.51
2022-12-04T00:27:41.599Z,19.51
2022-12-04T00:30:09.062Z,19.53
2022-12-04T00:32:36.232Z,19.51
2022-12-04T00:35:04.050Z,19.48
2022-12-04T00:37:31.122Z,19.44
2022-12-04T00:39:58.133Z,19.42
2022-12-04T00:42:25.487Z,19.41
2022-12-04T00:44:52.482Z,19.48
2022-12-04T00:47:19.455Z,19.59
2022-12-04T00:49:46.627Z,19.60
2022-12-04T00:52:13.604Z,19.64
2022-12-04T00:54:40.598Z,19.71
2022-12-04T00:57:07.730Z,19.74
2022-12-04T00:59:34.759Z,19.74
2022-12-04T01:02:01.817Z,19.72
2022-12-04T01:04:28.875Z,19.65
2022-12-04T01:06:59.024Z,19.66
2022-12-04T01:09:28.720Z,19.68
2022-12-04T01:11:55.719Z,19.66
2022-12-04T01:14:22.691Z,19.68
2022-12-04T01:16:49.773Z,19.70
2022-12-04T01:19:16.823Z,19.71
2022-12-04T01:21:43.991Z,19.70
2022-12-04T01:24:10.962Z,19.71
2022-12-04T01:26:37.946Z,19.70
2022-12-04T01:29:05.887Z,19.67
2022-12-04T01:31:32.978Z,19.64
2022-12-04T01:34:00.100Z,19.64
2022-12-04T01:36:28.900Z,19.64
2022-12-04T01:38:56.411Z,19.63
2022-12-04T01:41:26.936Z,19.62
2022-12-04T01:44:31.017Z,19.58
2022-12-04T01:47:01.020Z,19.53
2022-12-04T01:49:42.900Z,19.53
2022-12-04T01:52:22.055Z,19.53
2022-12-04T01:54:57.466Z,19.51
2022-12-04T01:57:28.592Z,19.46
2022-12-04T02:00:02.955Z,19.40
2022-12-04T02:02:35.015Z,19.35
2022-12-04T02:05:04.654Z,19.30
2022-12-04T02:07:32.625Z,19.26
2022-12-04T02:10:04.162Z,19.23
2022-12-04T02:12:56.153Z,19.31
2022-12-04T02:15:27.000Z,19.35
2022-12-04T02:18:15.318Z,19.35
2022-12-04T02:21:14.958Z,19.36
2022-12-04T02:23:56.869Z,19.33
2022-12-04T02:26:47.512Z,19.27
2022-12-04T02:29:50.101Z,19.27
2022-12-04T02:32:24.753Z,19.27
2022-12-04T02:34:59.554Z,19.26
2022-12-04T02:37:48.623Z,19.26
2022-12-04T02:40:27.056Z,19.28
2022-12-04T02:43:22.967Z,19.30
2022-12-04T02:46:14.527Z,19.28
2022-12-04T02:48:44.764Z,19.23
2022-12-04T02:51:16.667Z,19.25
2022-12-04T02:53:51.676Z,19.25
2022-12-04T02:56:25.560Z,19.21
2022-12-04T02:58:57.606Z,19.16
2022-12-04T03:01:30.325Z,19.08
2022-12-04T03:04:15.925Z,19.08
2022-12-04T03:06:47.686Z,19.16
2022-12-04T03:09:47.530Z,19.28
2022-12-04T03:12:24.303Z,19.37
2022-12-04T03:15:22.412Z,19.42
2022-12-04T03:18:00.766Z,19.51
2022-12-04T03:20:31.363Z,19.55
2022-12-04T03:23:10.018Z,19.62
2022-12-04T03:25:54.458Z,19.68
2022-12-04T03:28:41.343Z,19.73
2022-12-04T03:31:11.395Z,19.76
2022-12-04T03:33:48.147Z,19.71
2022-12-04T03:36:28.266Z,19.76
2022-12-04T03:39:02.011Z,19.85
2022-12-04T03:42:02.574Z,19.92
2022-12-04T03:44:44.147Z,19.92
2022-12-04T03:47:16.676Z,19.96
2022-12-04T03:49:59.327Z,20.00
2022-12-04T03:52:44.574Z,20.04
2022-12-04T03:55:35.196Z,20.03
2022-12-04T03:58:07.502Z,20.05
2022-12-04T04:00:40.452Z,20.06
2022-12-04T04:03:21.300Z,20.07
2022-12-04T04:05:52.145Z,20.04
2022-12-04T04:08:27.467Z,20.01
2022-12-04T04:10:59.583Z,19.96
2022-12-04T04:13:52.064Z,19.93
2022-12-04T04:16:41.702Z,19.88
2022-12-04T04:19:30.519Z,19.84
2022-12-04T04:22:17.745Z,19.79
2022-12-04T04:25:04.127Z,19.73
2022-12-04T04:27:31.151Z,19.67
2022-12-04T04:29:58.771Z,19.63
2022-12-04T04:32:45.516Z,19.58
2022-12-04T04:35:27.854Z,19.52
2022-12-04T04:38:22.071Z,19.48
2022-12-04T04:41:00.160Z,19.40
2022-12-04T04:43:46.977Z,19.36
2022-12-04T04:46:20.075Z,19.40
2022-12-04T04:48:51.914Z,19.31
2022-12-04T04:51:20.092Z,19.25
2022-12-04T04:53:50.849Z,19.19
2022-12-04T04:56:18.526Z,19.10
2022-12-04T04:58:45.905Z,19.00
2022-12-04T05:01:16.459Z,18.93
2022-12-04T05:03:43.599Z,18.91
2022-12-04T05:06:10.841Z,18.83
2022-12-04T05:08:38.051Z,18.77
2022-12-04T05:11:06.319Z,18.80
2022-12-04T05:13:33.720Z,18.80
2022-12-04T05:16:04.288Z,18.80
2022-12-04T05:18:32.317Z,18.85
2022-12-04T05:20:59.502Z,18.79
2022-12-04T05:23:26.559Z,18.76
2022-12-04T05:26:00.907Z,18.75
2022-12-04T05:28:28.354Z,18.72
2022-12-04T05:31:01.747Z,18.73
2022-12-04T05:33:29.415Z,18.70
2022-12-04T05:36:01.495Z,18.71
2022-12-04T05:38:28.741Z,18.71
2022-12-04T05:40:58.823Z,18.76
2022-12-04T05:43:26.010Z,18.79
2022-12-04T05:45:53.013Z,18.78
2022-12-04T05:48:20.252Z,18.81
2022-12-04T05:50:47.925Z,18.82
2022-12-04T05:53:14.988Z,18.79
2022-12-04T05:55:41.984Z,18.79
2022-12-04T05:58:09.074Z,18.77
2022-12-04T06:00:36.374Z,18.77
2022-12-04T06:03:03.491Z,18.74
2022-12-04T06:05:32.930Z,18.73
2022-12-04T06:08:00.149Z,18.71
2022-12-04T06:10:27.227Z,18.67
2022-12-04T06:12:57.985Z,18.70
2022-12-04T06:15:25.158Z,18.75
2022-12-04T06:17:52.170Z,18.79
2022-12-04T06:20:19.397Z,18.86
2022-12-04T06:22:46.446Z,18.87
2022-12-04T06:25:13.459Z,18.84
2022-12-04T06:27:40.521Z,18.79
2022-12-04T06:30:08.264Z,18.82
2022-12-04T06:32:35.219Z,18.84
2022-12-04T06:35:02.476Z,18.89
2022-12-04T06:37:29.473Z,18.91
2022-12-04T06:39:56.674Z,18.90
2022-12-04T06:42:24.095Z,18.86
2022-12-04T06:44:51.059Z,18.88
2022-12-04T06:47:18.205Z,18.89
2022-12-04T06:49:46.797Z,18.85
2022-12-04T06:52:13.834Z,18.82
2022-12-04T06:54:40.831Z,18.79
2022-12-04T06:57:07.978Z,18.81
2022-12-04T06:59:35.150Z,18.86
2022-12-04T07:02:02.176Z,18.88
2022-12-04T07:04:29.265Z,18.91
2022-12-04T07:06:56.330Z,18.94
2022-12-04T07:09:23.463Z,18.96
2022-12-04T07:11:50.540Z,18.95
2022-12-04T07:14:17.545Z,19.00
2022-12-04T07:16:44.656Z,19.05
2022-12-04T07:19:14.017Z,19.06
2022-12-04T07:21:43.544Z,19.07
2022-12-04T07:24:16.989Z,19.08
2022-12-04T07:26:44.019Z,19.12
2022-12-04T07:29:11.188Z,19.11
2022-12-04T07:31:38.542Z,19.13
2022-12-04T07:34:05.645Z,19.17
2022-12-04T07:36:32.755Z,19.22
2022-12-04T07:38:59.960Z,19.28
2022-12-04T07:41:27.000Z,19.32
2022-12-04T07:43:54.960Z,19.33
2022-12-04T07:46:24.771Z,19.37
2022-12-04T07:48:52.008Z,19.42
2022-12-04T07:51:22.114Z,19.49
2022-12-04T07:53:50.523Z,19.52
2022-12-04T07:56:18.033Z,19.51
2022-12-04T07:58:45.549Z,19.50
2022-12-04T08:01:14.132Z,19.47
2022-12-04T08:03:47.672Z,19.41
2022-12-04T08:06:17.534Z,19.43
2022-12-04T08:08:44.509Z,19.38
2022-12-04T08:11:14.330Z,19.36
2022-12-04T08:13:41.379Z,19.36
2022-12-04T08:16:10.271Z,19.34
2022-12-04T08:18:37.775Z,19.40
2022-12-04T08:21:12.960Z,19.48
2022-12-04T08:23:41.251Z,19.47
2022-12-04T08:26:08.839Z,19.47
2022-12-04T08:28:36.687Z,19.45
2022-12-04T08:31:15.494Z,19.40
2022-12-04T08:33:43.833Z,19.36
2022-12-04T08:36:13.467Z,19.41
2022-12-04T08:38:40.799Z,19.49
2022-12-04T08:41:10.907Z,19.55
2022-12-04T08:43:38.210Z,19.55
2022-12-04T08:46:09.259Z,19.61
2022-12-04T08:48:36.876Z,19.66
2022-12-04T08:51:04.977Z,19.69
2022-12-04T08:53:32.632Z,19.69
2022-12-04T08:56:01.706Z,19.74
2022-12-04T08:58:28.789Z,19.84
2022-12-04T09:00:56.058Z,19.89
2022-12-04T09:03:29.189Z,19.91
2022-12-04T09:06:01.841Z,19.92
2022-12-04T09:08:28.889Z,19.92
2022-12-04T09:10:55.966Z,19.91
2022-12-04T09:13:22.986Z,19.93
2022-12-04T09:15:50.182Z,19.89
2022-12-04T09:18:17.258Z,19.86
2022-12-04T09:20:44.253Z,19.86
2022-12-04T09:23:11.495Z,19.90
2022-12-04T09:25:38.548Z,19.93
2022-12-04T09:28:05.527Z,19.99
2022-12-04T09:30:32.697Z,20.05
2022-12-04T09:32:59.832Z,20.07
2022-12-04T09:35:26.851Z,20.10
2022-12-04T09:37:54.039Z,20.12
2022-12-04T09:40:37.593Z,20.10
2022-12-04T09:43:28.139Z,20.13
2022-12-04T09:45:59.731Z,20.15
2022-12-04T09:48:36.383Z,20.22
2022-12-04T09:51:06.162Z,20.24
2022-12-04T09:53:55.368Z,20.31
2022-12-04T09:56:28.156Z,20.37
2022-12-04T09:59:09.425Z,20.37
2022-12-04T10:01:45.781Z,20.40
2022-12-04T10:04:13.633Z,20.46
2022-12-04T10:07:07.857Z,20.52
2022-12-04T10:09:59.812Z,20.60
2022-12-04T10:12:32.777Z,20.63
2022-12-04T10:15:19.468Z,20.64
2022-12-04T10:17:46.555Z,20.67
2022-12-04T10:20:37.815Z,20.59
2022-12-04T10:23:28.115Z,20.51
2022-12-04T10:25:55.682Z,20.50
2022-12-04T10:28:28.555Z,20.49
2022-12-04T10:31:01.010Z,20.51
2022-12-04T10:33:48.996Z,20.54
2022-12-04T10:36:22.204Z,20.61
2022-12-04T10:38:56.699Z,20.68
2022-12-04T10:41:34.233Z,20.73
2022-12-04T10:44:01.292Z,20.81
2022-12-04T10:46:30.692Z,20.85
2022-12-04T10:49:04.237Z,20.91
2022-12-04T10:51:39.843Z,20.96
2022-12-04T10:54:25.649Z,21.00
2022-12-04T10:56:54.018Z,21.03
2022-12-04T10:59:21.512Z,21.08
2022-12-04T11:01:50.456Z,21.15
2022-12-04T11:04:25.304Z,21.19
2022-12-04T11:07:03.445Z,21.20
2022-12-04T11:09:31.890Z,21.23
2022-12-04T11:12:16.358Z,21.26
2022-12-04T11:14:46.983Z,21.26
2022-12-04T11:17:20.261Z,21.32
2022-12-04T11:19:47.908Z,21.37
2022-12-04T11:22:19.783Z,21.47
2022-12-04T11:24:53.614Z,21.54
2022-12-04T11:27:23.485Z,21.57
2022-12-04T11:29:50.861Z,21.51
2022-12-04T11:32:29.509Z,21.52
2022-12-04T11:35:01.316Z,21.54
2022-12-04T11:37:32.369Z,21.63
2022-12-04T11:39:59.657Z,21.64
2022-12-04T11:42:31.517Z,21.68
2022-12-04T11:45:21.690Z,21.71
2022-12-04T11:48:00.160Z,21.75
2022-12-04T11:50:38.377Z,21.79
2022-12-04T11:53:05.363Z,21.86
2022-12-04T11:56:07.016Z,21.94
2022-12-04T11:58:42.685Z,21.97
2022-12-04T12:01:28.474Z,21.97
2022-12-04T12:04:14.206Z,21.92
2022-12-04T12:07:07.358Z,21.92
2022-12-04T12:09:44.904Z,21.94
2022-12-04T12:12:19.636Z,21.98
2022-12-04T12:14:58.431Z,22.06
2022-12-04T12:17:50.442Z,22.12
2022-12-04T12:20:17.355Z,22.17
2022-12-04T12:23:01.221Z,22.25
2022-12-04T12:25:52.297Z,22.29
2022-12-04T12:28:38.487Z,22.30
2022-12-04T12:31:42.960Z,22.32
2022-12-04T12:34:37.972Z,22.34
2022-12-04T12:37:14.955Z,22.39
2022-12-04T12:39:51.198Z,22.45
2022-12-04T12:42:27.364Z,22.41
2022-12-04T12:45:05.353Z,22.29
2022-12-04T12:47:41.712Z,22.28
2022-12-04T12:50:14.347Z,22.21
2022-12-04T12:52:59.003Z,22.24
2022-12-04T12:55:46.499Z,22.26
2022-12-04T12:58:16.168Z,22.24
2022-12-04T13:00:55.325Z,22.25
2022-12-04T13:03:28.631Z,22.26
2022-12-04T13:06:01.509Z,22.24
2022-12-04T13:08:35.618Z,22.30
2022-12-04T13:11:12.808Z,22.31
2022-12-04T13:13:48.965Z,22.40
2022-12-04T13:16:23.291Z,22.42
2022-12-04T13:19:08.366Z,22.50
2022-12-04T13:21:42.090Z,22.59
2022-12-04T13:24:09.022Z,22.66
2022-12-04T13:27:14.496Z,22.74
2022-12-04T13:29:59.444Z,22.72
2022-12-04T13:32:58.656Z,22.80
2022-12-04T13:35:59.124Z,22.85
2022-12-04T13:38:32.200Z,22.86
2022-12-04T13:41:09.074Z,22.87
2022-12-04T13:43:42.136Z,22.94
2022-12-04T13:46:37.934Z,22.94
2022-12-04T13:49:25.451Z,22.98
2022-12-04T13:51:53.871Z,23.04
2022-12-04T13:54:29.250Z,23.05
2022-12-04T13:57:13.313Z,23.03
2022-12-04T13:59:40.437Z,22.95
2022-12-04T14:02:38.086Z,22.89
2022-12-04T14:05:11.882Z,22.86
2022-12-04T14:07:40.053Z,22.81
2022-12-04T14:10:23.328Z,22.90
2022-12-04T14:12:59.603Z,22.98
2022-12-04T14:15:34.065Z,22.98
2022-12-04T14:18:09.750Z,22.97
2022-12-04T14:20:37.515Z,23.14
2022-12-04T14:23:28.520Z,23.24
2022-12-04T14:25:58.106Z,23.26
2022-12-04T14:28:27.328Z,23.24
2022-12-04T14:31:09.597Z,23.24
2022-12-04T14:33:49.000Z,23.32
2022-12-04T14:36:21.328Z,23.42
2022-12-04T14:38:51.320Z,23.44
2022-12-04T14:41:25.446Z,23.43
2022-12-04T14:43:53.137Z,23.45
2022-12-04T14:46:26.271Z,23.54
2022-12-04T14:49:04.264Z,23.60
2022-12-04T14:51:44.557Z,23.61
2022-12-04T14:54:43.017Z,23.60
2022-12-04T14:57:41.640Z,23.58
2022-12-04T15:00:20.309Z,23.65
2022-12-04T15:02:49.273Z,23.71
2022-12-04T15:05:35.398Z,23.79
2022-12-04T15:08:06.882Z,23.81
2022-12-04T15:10:54.265Z,23.81
2022-12-04T15:13:28.316Z,23.81
2022-12-04T15:15:55.498Z,23.78
2022-12-04T15:18:22.745Z,23.79
2022-12-04T15:20:49.747Z,23.79
2022-12-04T15:23:19.900Z,23.69
2022-12-04T15:25:51.202Z,23.59
2022-12-04T15:28:29.219Z,23.63
2022-12-04T15:31:00.109Z,23.62
2022-12-04T15:33:32.842Z,23.64
2022-12-04T15:36:06.243Z,23.68
2022-12-04T15:38:33.877Z,23.75
2022-12-04T15:41:01.779Z,23.71
2022-12-04T15:43:32.182Z,23.74
2022-12-04T15:45:59.656Z,23.75
2022-12-04T15:48:29.286Z,23.75
2022-12-04T15:51:02.120Z,23.78
2022-12-04T15:53:37.478Z,23.88
2022-12-04T15:56:08.207Z,23.97
2022-12-04T15:58:47.052Z,23.95
2022-12-04T16:01:15.955Z,23.93
2022-12-04T16:03:43.363Z,24.03
2022-12-04T16:06:21.482Z,24.01
2022-12-04T16:08:54.378Z,23.91
2022-12-04T16:11:21.743Z,23.86
2022-12-04T16:14:09.237Z,23.79
2022-12-04T16:16:38.075Z,23.77
2022-12-04T16:19:12.714Z,23.86
2022-12-04T16:21:39.872Z,23.90
2022-12-04T16:24:07.972Z,23.93
2022-12-04T16:26:37.342Z,23.90
2022-12-04T16:29:04.359Z,23.87
2022-12-04T16:31:31.399Z,23.86
2022-12-04T16:33:58.586Z,23.83
2022-12-04T16:36:25.554Z,23.82
2022-12-04T16:38:52.597Z,23.81
2022-12-04T16:41:20.273Z,23.81
2022-12-04T16:43:54.974Z,23.85
2022-12-04T16:46:25.008Z,23.91
2022-12-04T16:48:52.516Z,23.93
2022-12-04T16:51:25.055Z,23.82
2022-12-04T16:53:53.185Z,23.85
2022-12-04T16:56:20.927Z,23.84
2022-12-04T16:58:48.291Z,23.78
2022-12-04T17:01:27.785Z,23.74
2022-12-04T17:03:54.937Z,23.70
2022-12-04T17:06:22.015Z,23.66
2022-12-04T17:08:49.119Z,23.55
2022-12-04T17:11:17.854Z,23.41
2022-12-04T17:13:45.121Z,23.36
2022-12-04T17:16:15.023Z,23.33
2022-12-04T17:18:45.568Z,23.24
2022-12-04T17:21:14.765Z,23.17
2022-12-04T17:23:42.384Z,23.12
2022-12-04T17:26:12.441Z,23.08
2022-12-04T17:28:39.939Z,22.99
2022-12-04T17:31:15.502Z,22.94
2022-12-04T17:33:43.760Z,22.86
2022-12-04T17:36:13.400Z,22.83
2022-12-04T17:38:43.890Z,22.81
2022-12-04T17:41:14.319Z,22.72
2022-12-04T17:43:42.669Z,22.62
2022-12-04T17:46:19.133Z,22.58
2022-12-04T17:48:46.649Z,22.56
2022-12-04T17:51:17.645Z,22.54
2022-12-04T17:53:45.332Z,22.50
2022-12-04T17:56:17.658Z,22.41
2022-12-04T17:58:45.656Z,22.31
2022-12-04T18:01:21.974Z,22.17
2022-12-04T18:03:54.064Z,22.08
2022-12-04T18:06:26.821Z,22.07
2022-12-04T18:08:54.517Z,22.06
2022-12-04T18:11:24.075Z,21.99
2022-12-04T18:13:56.602Z,21.98
2022-12-04T18:16:24.808Z,21.92
2022-12-04T18:18:56.066Z,21.88
2022-12-04T18:21:23.651Z,21.84
2022-12-04T18:23:50.963Z,21.82
2022-12-04T18:26:20.776Z,21.83
2022-12-04T18:28:48.889Z,21.82
2022-12-04T18:31:18.087Z,21.82
2022-12-04T18:33:45.287Z,21.78
2022-12-04T18:36:18.563Z,21.70
2022-12-04T18:38:46.761Z,21.63
2022-12-04T18:41:14.853Z,21.61
2022-12-04T18:43:45.055Z,21.60
2022-12-04T18:46:14.774Z,21.60
2022-12-04T18:48:41.974Z,21.55
2022-12-04T18:51:19.227Z,21.51
2022-12-04T18:53:47.216Z,21.45
2022-12-04T18:56:15.027Z,21.44
2022-12-04T18:58:43.115Z,21.44
2022-12-04T19:01:12.723Z,21.46
2022-12-04T19:03:39.997Z,21.49
2022-12-04T19:06:07.820Z,21.52
2022-12-04T19:08:38.764Z,21.53
2022-12-04T19:11:14.740Z,21.49
2022-12-04T19:13:42.818Z,21.38
2022-12-04T19:16:14.247Z,21.32
2022-12-04T19:18:42.543Z,21.28
2022-12-04T19:21:09.703Z,21.24
2022-12-04T19:23:37.157Z,21.25
2022-12-04T19:26:04.413Z,21.28
2022-12-04T19:28:31.718Z,21.29
2022-12-04T19:30:58.772Z,21.30
2022-12-04T19:33:26.647Z,21.35
2022-12-04T19:36:05.387Z,21.37
2022-12-04T19:38:33.681Z,21.36
2022-12-04T19:41:18.693Z,21.38
2022-12-04T19:43:56.795Z,21.43
2022-12-04T19:46:29.150Z,21.45
2022-12-04T19:48:58.959Z,21.49
2022-12-04T19:51:26.093Z,21.47
2022-12-04T19:53:54.940Z,21.43
2022-12-04T19:56:24.841Z,21.41
2022-12-04T19:58:54.800Z,21.38
2022-12-04T20:01:28.660Z,21.32
2022-12-04T20:03:56.745Z,21.24
2022-12-04T20:06:26.270Z,21.22
2022-12-04T20:08:56.264Z,21.20
2022-12-04T20:11:23.728Z,21.19
2022-12-04T20:13:54.292Z,21.17
2022-12-04T20:16:22.568Z,21.19
2022-12-04T20:18:49.941Z,21.23
2022-12-04T20:21:17.621Z,21.25
2022-12-04T20:23:49.703Z,21.30
2022-12-04T20:26:20.887Z,21.31
2022-12-04T20:28:47.928Z,21.33
2022-12-04T20:31:38.587Z,21.34
2022-12-04T20:34:13.676Z,21.37
2022-12-04T20:36:43.816Z,21.40
2022-12-04T20:39:12.623Z,21.40
2022-12-04T20:41:39.974Z,21.42
2022-12-04T20:44:09.348Z,21.43
2022-12-04T20:46:38.798Z,21.41
2022-12-04T20:49:17.211Z,21.42
2022-12-04T20:51:48.229Z,21.41
2022-12-04T20:54:21.020Z,21.37
2022-12-04T20:56:49.670Z,21.36
2022-12-04T20:59:18.584Z,21.35
2022-12-04T21:01:46.060Z,21.32
2022-12-04T21:04:13.591Z,21.34
2022-12-04T21:06:41.904Z,21.37
2022-12-04T21:09:12.928Z,21.36
2022-12-04T21:11:45.111Z,21.30
2022-12-04T21:14:33.945Z,21.24
2022-12-04T21:17:01.894Z,21.24
2022-12-04T21:19:29.023Z,21.20
2022-12-04T21:21:56.161Z,21.11
2022-12-04T21:24:24.616Z,21.12
2022-12-04T21:26:51.613Z,21.16
2022-12-04T21:29:18.982Z,21.18
2022-12-04T21:31:46.301Z,21.19
2022-12-04T21:34:15.241Z,21.20
2022-12-04T21:36:42.377Z,21.22
2022-12-04T21:39:09.736Z,21.17
2022-12-04T21:41:55.127Z,21.10
2022-12-04T21:44:22.498Z,21.18
2022-12-04T21:46:50.581Z,21.24
2022-12-04T21:49:19.256Z,21.29
2022-12-04T21:52:01.800Z,21.31
2022-12-04T21:54:29.279Z,21.30
2022-12-04T21:56:57.163Z,21.31
2022-12-04T21:59:25.913Z,21.34
2022-12-04T22:01:53.779Z,21.29
2022-12-04T22:04:21.125Z,21.28
2022-12-04T22:06:48.196Z,21.30
2022-12-04T22:09:15.210Z,21.26
2022-12-04T22:11:42.697Z,21.25
2022-12-04T22:14:11.106Z,21.24
2022-12-04T22:16:42.426Z,21.24
2022-12-04T22:19:12.107Z,21.22
2022-12-04T22:21:40.129Z,21.20
2022-12-04T22:24:07.859Z,21.19
2022-12-04T22:26:34.876Z,21.22
2022-12-04T22:29:11.197Z,21.24
2022-12-04T22:31:49.590Z,21.21
2022-12-04T22:34:16.591Z,21.14
2022-12-04T22:36:43.599Z,21.14
2022-12-04T22:39:11.258Z,21.14
2022-12-04T22:41:39.137Z,21.11
2022-12-04T22:44:06.500Z,21.10
2022-12-04T22:46:34.617Z,21.09
2022-12-04T22:49:01.851Z,21.03
2022-12-04T22:51:29.081Z,21.02
2022-12-04T22:53:57.880Z,21.20
2022-12-04T22:56:30.526Z,21.33
2022-12-04T22:58:58.668Z,21.43
2022-12-04T23:01:28.511Z,21.48
2022-12-04T23:03:56.599Z,21.55
2022-12-04T23:06:26.109Z,21.60
2022-12-04T23:08:59.135Z,21.59
2022-12-04T23:11:27.762Z,21.53
2022-12-04T23:13:57.655Z,21.48
2022-12-04T23:16:25.512Z,21.44
2022-12-04T23:18:53.246Z,21.40
2022-12-04T23:21:22.176Z,21.34
2022-12-04T23:23:51.050Z,21.18
2022-12-04T23:26:20.502Z,21.04
2022-12-04T23:28:48.216Z,20.97
2022-12-04T23:31:16.310Z,20.92
2022-12-04T23:33:43.915Z,20.93
2022-12-04T23:36:12.966Z,20.93
2022-12-04T23:38:41.503Z,20.97
2022-12-04T23:41:12.595Z,20.98
2022-12-04T23:43:40.431Z,21.03
2022-12-04T23:46:11.197Z,21.07
2022-12-04T23:48:40.245Z,21.11
2022-12-04T23:51:08.454Z,21.13
2022-12-04T23:53:35.820Z,21.15
2022-12-04T23:56:07.615Z,21.16
2022-12-04T23:58:35.415Z,21.14
